createdAt,value
2023-09-08T00:00:53.689Z,21.49
2023-09-08T00:01:53.766Z,21.49
2023-09-08T00:02:53.782Z,21.52
2023-09-08T00:03:53.792Z,21.52
2023-09-08T00:04:53.696Z,21.47
2023-09-08T00:05:53.689Z,21.38
2023-09-08T00:06:53.731Z,21.42
2023-09-08T00:07:53.698Z,21.47
2023-09-08T00:08:53.717Z,21.47
2023-09-08T00:09:53.701Z,21.42
2023-09-08T00:10:53.738Z,21.46
2023-09-08T00:11:53.700Z,21.38
2023-09-08T00:12:53.711Z,21.42
2023-09-08T00:13:53.756Z,21.31
2023-09-08T00:14:53.710Z,21.43
2023-09-08T00:15:53.746Z,21.31
2023-09-08T00:16:53.755Z,21.37
2023-09-08T00:17:53.764Z,21.31
2023-09-08T00:18:53.737Z,21.28
2023-09-08T00:19:53.717Z,21.29
2023-09-08T00:20:53.723Z,21.27
2023-09-08T00:21:53.734Z,21.27
2023-09-08T00:22:53.768Z,21.24
2023-09-08T00:23:53.726Z,21.14
2023-09-08T00:24:53.735Z,21.25
2023-09-08T00:25:53.761Z,21.19
2023-09-08T00:26:53.727Z,21.22
2023-09-08T00:27:53.730Z,21.19
2023-09-08T00:28:53.742Z,21.10
2023-09-08T00:29:53.739Z,21.10
2023-09-08T00:30:53.736Z,21.13
2023-09-08T00:31:53.733Z,21.10
2023-09-08T00:32:53.870Z,21.21
2023-09-08T00:33:53.841Z,21.13
2023-09-08T00:34:53.763Z,21.17
2023-09-08T00:35:53.740Z,21.17
2023-09-08T00:36:53.751Z,21.17
2023-09-08T00:37:53.752Z,21.21
2023-09-08T00:38:53.798Z,21.17
2023-09-08T00:39:53.777Z,21.16
2023-09-08T00:40:53.765Z,21.10
2023-09-08T00:41:53.753Z,21.17
2023-09-08T00:42:53.762Z,21.13
2023-09-08T00:43:53.757Z,21.09
2023-09-08T00:44:53.762Z,21.06
2023-09-08T00:45:53.839Z,21.09
2023-09-08T00:46:53.761Z,20.97
2023-09-08T00:47:53.843Z,20.97
2023-09-08T00:48:53.762Z,20.99
2023-09-08T00:49:53.766Z,20.95
2023-09-08T00:50:53.803Z,20.95
2023-09-08T00:51:53.767Z,20.99
2023-09-08T00:52:53.777Z,20.98
2023-09-08T00:53:53.814Z,20.99
2023-09-08T00:54:53.776Z,21.03
2023-09-08T00:55:53.776Z,21.06
2023-09-08T00:56:53.781Z,20.97
2023-09-08T00:57:53.791Z,21.01
2023-09-08T00:58:53.786Z,21.06
2023-09-08T00:59:53.783Z,21.01
2023-09-08T01:00:53.829Z,20.97
2023-09-08T01:01:53.785Z,21.03
2023-09-08T01:02:53.829Z,20.94
2023-09-08T01:03:53.908Z,20.94
2023-09-08T01:04:53.845Z,20.94
2023-09-08T01:05:53.822Z,21.03
2023-09-08T01:06:53.819Z,20.89
2023-09-08T01:07:53.788Z,20.79
2023-09-08T01:08:54.011Z,20.94
2023-09-08T01:09:53.901Z,20.91
2023-09-08T01:10:53.809Z,20.87
2023-09-08T01:11:53.818Z,20.87
2023-09-08T01:12:53.798Z,20.94
2023-09-08T01:13:53.801Z,20.79
2023-09-08T01:14:53.846Z,20.74
2023-09-08T01:15:53.871Z,20.76
2023-09-08T01:16:53.903Z,20.61
2023-09-08T01:17:53.908Z,20.70
2023-09-08T01:18:53.987Z,20.80
2023-09-08T01:19:53.805Z,20.70
2023-09-08T01:20:53.810Z,20.67
2023-09-08T01:21:53.819Z,20.69
2023-09-08T01:22:53.837Z,20.61
2023-09-08T01:23:53.820Z,20.62
2023-09-08T01:24:53.824Z,20.70
2023-09-08T01:25:53.829Z,20.67
2023-09-08T01:26:53.830Z,20.72
2023-09-08T01:27:53.831Z,20.76
2023-09-08T01:28:53.825Z,20.64
2023-09-08T01:29:53.823Z,20.76
2023-09-08T01:30:53.928Z,20.74
2023-09-08T01:31:53.923Z,20.70
2023-09-08T01:32:53.876Z,20.73
2023-09-08T01:33:53.870Z,20.70
2023-09-08T01:34:53.849Z,20.62
2023-09-08T01:35:53.833Z,20.76
2023-09-08T01:36:53.848Z,20.70
2023-09-08T01:37:53.834Z,20.77
2023-09-08T01:38:53.883Z,20.77
2023-09-08T01:39:53.843Z,20.76
2023-09-08T01:40:53.845Z,20.66
2023-09-08T01:41:53.835Z,20.58
2023-09-08T01:42:53.836Z,20.61
2023-09-08T01:43:53.837Z,20.66
2023-09-08T01:44:53.844Z,20.62
2023-09-08T01:45:53.888Z,20.59
2023-09-08T01:46:53.938Z,20.59
2023-09-08T01:47:53.881Z,20.59
2023-09-08T01:48:53.904Z,20.61
2023-09-08T01:49:53.845Z,20.50
2023-09-08T01:50:53.846Z,20.55
2023-09-08T01:51:53.900Z,20.48
2023-09-08T01:52:53.861Z,20.54
2023-09-08T01:53:53.855Z,20.50
2023-09-08T01:54:53.958Z,20.43
2023-09-08T01:55:53.855Z,20.47
2023-09-08T01:56:53.862Z,20.50
2023-09-08T01:57:53.940Z,20.50
2023-09-08T01:58:53.880Z,20.36
2023-09-08T01:59:53.856Z,20.38
2023-09-08T02:00:53.936Z,20.36
2023-09-08T02:01:53.888Z,20.35
2023-09-08T02:02:53.883Z,20.47
2023-09-08T02:03:53.861Z,20.42
2023-09-08T02:04:53.936Z,20.42
2023-09-08T02:05:53.861Z,20.41
2023-09-08T02:06:53.876Z,20.48
2023-09-08T02:07:53.902Z,20.52
2023-09-08T02:08:53.874Z,20.43
2023-09-08T02:09:53.872Z,20.52
2023-09-08T02:10:53.904Z,20.51
2023-09-08T02:11:53.866Z,20.42
2023-09-08T02:12:53.875Z,20.38
2023-09-08T02:13:55.361Z,20.38
2023-09-08T02:14:53.996Z,20.36
2023-09-08T02:15:53.930Z,20.38
2023-09-08T02:16:53.914Z,20.35
2023-09-08T02:17:53.909Z,20.17
2023-09-08T02:18:53.913Z,20.16
2023-09-08T02:19:53.878Z,20.16
2023-09-08T02:20:53.888Z,20.06
2023-09-08T02:21:53.882Z,20.08
2023-09-08T02:22:53.878Z,20.08
2023-09-08T02:23:53.890Z,20.05
2023-09-08T02:24:53.880Z,20.11
2023-09-08T02:25:53.880Z,20.08
2023-09-08T02:26:53.902Z,20.11
2023-09-08T02:27:53.905Z,20.05
2023-09-08T02:28:53.885Z,20.08
2023-09-08T02:29:53.926Z,20.05
2023-09-08T02:30:53.884Z,20.20
2023-09-08T02:31:53.908Z,20.16
2023-09-08T02:32:53.973Z,20.17
2023-09-08T02:33:53.981Z,20.28
2023-09-08T02:34:53.989Z,20.23
2023-09-08T02:35:53.887Z,20.23
2023-09-08T02:36:53.889Z,20.20
2023-09-08T02:37:53.903Z,20.16
2023-09-08T02:38:53.894Z,20.18
2023-09-08T02:39:53.904Z,20.20
2023-09-08T02:40:53.898Z,20.24
2023-09-08T02:41:53.889Z,20.13
2023-09-08T02:42:53.959Z,20.13
2023-09-08T02:43:53.891Z,20.13
2023-09-08T02:44:53.896Z,20.05
2023-09-08T02:45:53.960Z,20.13
2023-09-08T02:46:53.969Z,20.08
2023-09-08T02:47:53.954Z,20.08
2023-09-08T02:48:53.932Z,20.05
2023-09-08T02:49:53.902Z,20.10
2023-09-08T02:50:53.901Z,20.08
2023-09-08T02:51:53.958Z,20.02
2023-09-08T02:52:53.901Z,20.05
2023-09-08T02:53:53.902Z,20.08
2023-09-08T02:54:53.968Z,20.01
2023-09-08T02:55:53.906Z,19.99
2023-09-08T02:56:53.926Z,19.99
2023-09-08T02:57:53.907Z,19.95
2023-09-08T02:58:53.922Z,20.01
2023-09-08T02:59:53.927Z,19.96
2023-09-08T03:00:53.912Z,20.02
2023-09-08T03:01:54.133Z,19.98
2023-09-08T03:02:54.053Z,19.94
2023-09-08T03:03:54.032Z,19.94
2023-09-08T03:04:53.955Z,19.92
2023-09-08T03:05:53.916Z,19.92
2023-09-08T03:06:53.922Z,19.84
2023-09-08T03:07:53.954Z,19.86
2023-09-08T03:08:53.924Z,19.80
2023-09-08T03:09:53.961Z,19.83
2023-09-08T03:10:53.915Z,19.81
2023-09-08T03:11:53.949Z,19.80
2023-09-08T03:12:53.921Z,19.78
2023-09-08T03:13:53.963Z,19.66
2023-09-08T03:14:53.940Z,19.68
2023-09-08T03:15:53.938Z,19.59
2023-09-08T03:16:53.951Z,19.62
2023-09-08T03:17:53.990Z,19.62
2023-09-08T03:18:53.922Z,19.62
2023-09-08T03:19:53.946Z,19.59
2023-09-08T03:20:53.916Z,19.58
2023-09-08T03:21:53.924Z,19.51
2023-09-08T03:22:53.926Z,19.58
2023-09-08T03:23:53.977Z,19.47
2023-09-08T03:24:53.924Z,19.43
2023-09-08T03:25:53.928Z,19.41
2023-09-08T03:26:53.952Z,19.48
2023-09-08T03:27:53.930Z,19.50
2023-09-08T03:28:53.951Z,19.39
2023-09-08T03:29:53.930Z,19.37
2023-09-08T03:30:53.956Z,19.47
2023-09-08T03:31:54.034Z,19.41
2023-09-08T03:32:53.990Z,19.44
2023-09-08T03:33:54.047Z,19.46
2023-09-08T03:34:53.937Z,19.37
2023-09-08T03:35:53.935Z,19.33
2023-09-08T03:36:53.953Z,19.33
2023-09-08T03:37:53.932Z,19.36
2023-09-08T03:38:53.936Z,19.50
2023-09-08T03:39:53.951Z,19.40
2023-09-08T03:40:53.934Z,19.23
2023-09-08T03:41:53.939Z,19.28
2023-09-08T03:42:53.997Z,19.40
2023-09-08T03:43:53.935Z,19.40
2023-09-08T03:44:53.930Z,19.26
2023-09-08T03:45:54.006Z,19.26
2023-09-08T03:46:53.959Z,19.22
2023-09-08T03:47:53.957Z,19.32
2023-09-08T03:48:53.940Z,19.22
2023-09-08T03:49:53.976Z,19.25
2023-09-08T03:50:53.938Z,19.23
2023-09-08T03:51:53.935Z,19.22
2023-09-08T03:52:53.941Z,19.16
2023-09-08T03:53:53.938Z,19.13
2023-09-08T03:54:53.936Z,19.11
2023-09-08T03:55:53.984Z,19.07
2023-09-08T03:56:53.934Z,19.11
2023-09-08T03:57:53.955Z,19.13
2023-09-08T03:58:53.984Z,19.08
2023-09-08T03:59:53.956Z,19.10
2023-09-08T04:00:53.962Z,19.07
2023-09-08T04:01:53.994Z,19.07
2023-09-08T04:02:53.987Z,19.02
2023-09-08T04:03:53.962Z,19.13
2023-09-08T04:04:53.969Z,19.04
2023-09-08T04:05:53.934Z,19.02
2023-09-08T04:06:53.956Z,19.07
2023-09-08T04:07:53.954Z,18.98
2023-09-08T04:08:53.972Z,18.92
2023-09-08T04:09:53.936Z,19.06
2023-09-08T04:10:53.938Z,18.91
2023-09-08T04:11:53.977Z,18.87
2023-09-08T04:12:53.938Z,18.70
2023-09-08T04:13:53.947Z,18.70
2023-09-08T04:14:53.962Z,18.81
2023-09-08T04:15:53.950Z,18.62
2023-09-08T04:16:53.935Z,18.57
2023-09-08T04:17:53.995Z,18.55
2023-09-08T04:18:56.508Z,18.63
2023-09-08T04:19:53.945Z,18.69
2023-09-08T04:20:53.991Z,18.72
2023-09-08T04:21:53.945Z,18.63
2023-09-08T04:22:53.941Z,18.69
2023-09-08T04:23:53.957Z,18.72
2023-09-08T04:24:53.937Z,18.72
2023-09-08T04:25:53.941Z,18.67
2023-09-08T04:26:53.940Z,18.73
2023-09-08T04:27:53.940Z,18.67
2023-09-08T04:28:53.945Z,18.73
2023-09-08T04:29:54.014Z,18.63
2023-09-08T04:30:53.958Z,18.72
2023-09-08T04:31:53.940Z,18.78
2023-09-08T04:32:53.971Z,18.81
2023-09-08T04:33:53.977Z,18.69
2023-09-08T04:34:53.962Z,18.70
2023-09-08T04:35:53.940Z,18.66
2023-09-08T04:36:53.958Z,18.60
2023-09-08T04:37:53.943Z,18.66
2023-09-08T04:38:53.946Z,18.69
2023-09-08T04:39:53.937Z,18.66
2023-09-08T04:40:53.956Z,18.75
2023-09-08T04:41:53.938Z,18.66
2023-09-08T04:42:53.938Z,18.65
2023-09-08T04:43:53.933Z,18.62
2023-09-08T04:44:53.934Z,18.62
2023-09-08T04:45:53.953Z,18.72
2023-09-08T04:46:53.961Z,18.62
2023-09-08T04:47:53.991Z,18.63
2023-09-08T04:48:53.960Z,18.72
2023-09-08T04:49:54.038Z,18.69
2023-09-08T04:50:53.963Z,18.67
2023-09-08T04:51:53.939Z,18.72
2023-09-08T04:52:53.943Z,18.69
2023-09-08T04:53:53.998Z,18.67
2023-09-08T04:54:53.948Z,18.67
2023-09-08T04:55:53.930Z,18.69
2023-09-08T04:56:55.359Z,18.70
2023-09-08T04:57:53.932Z,18.70
2023-09-08T04:58:53.935Z,18.72
2023-09-08T04:59:53.994Z,18.65
2023-09-08T05:00:53.957Z,18.67
2023-09-08T05:01:53.930Z,18.62
2023-09-08T05:02:54.068Z,18.73
2023-09-08T05:03:54.123Z,18.67
2023-09-08T05:04:53.938Z,18.70
2023-09-08T05:05:53.992Z,18.63
2023-09-08T05:06:53.958Z,18.69
2023-09-08T05:07:53.927Z,18.75
2023-09-08T05:08:54.015Z,18.70
2023-09-08T05:09:56.906Z,18.69
2023-09-08T05:10:53.931Z,18.72
2023-09-08T05:11:53.987Z,18.65
2023-09-08T05:12:53.931Z,18.69
2023-09-08T05:13:53.929Z,18.62
2023-09-08T05:14:53.926Z,18.66
2023-09-08T05:15:53.938Z,18.58
2023-09-08T05:16:53.992Z,18.60
2023-09-08T05:17:53.993Z,18.57
2023-09-08T05:18:53.973Z,18.58
2023-09-08T05:19:53.928Z,18.66
2023-09-08T05:20:53.924Z,18.62
2023-09-08T05:21:54.004Z,18.60
2023-09-08T05:22:53.948Z,18.57
2023-09-08T05:23:53.922Z,18.62
2023-09-08T05:24:53.926Z,18.60
2023-09-08T05:25:53.922Z,18.62
2023-09-08T05:26:53.924Z,18.58
2023-09-08T05:27:53.922Z,18.58
2023-09-08T05:28:53.919Z,18.65
2023-09-08T05:29:53.920Z,18.62
2023-09-08T05:30:53.947Z,18.67
2023-09-08T05:31:53.929Z,18.63
2023-09-08T05:32:53.974Z,18.60
2023-09-08T05:33:53.930Z,18.58
2023-09-08T05:34:53.921Z,18.60
2023-09-08T05:35:53.922Z,18.58
2023-09-08T05:36:53.947Z,18.62
2023-09-08T05:37:53.919Z,18.66
2023-09-08T05:38:53.950Z,18.60
2023-09-08T05:39:53.957Z,18.54
2023-09-08T05:40:53.923Z,18.66
2023-09-08T05:41:53.923Z,18.65
2023-09-08T05:42:53.929Z,18.66
2023-09-08T05:43:53.925Z,18.66
2023-09-08T05:44:53.915Z,18.72
2023-09-08T05:45:53.915Z,18.67
2023-09-08T05:46:53.996Z,18.69
2023-09-08T05:47:53.975Z,18.69
2023-09-08T05:48:53.916Z,18.67
2023-09-08T05:49:53.928Z,18.69
2023-09-08T05:50:53.918Z,18.72
2023-09-08T05:51:53.920Z,18.80
2023-09-08T05:52:53.915Z,18.90
2023-09-08T05:53:53.950Z,18.82
2023-09-08T05:54:53.936Z,18.84
2023-09-08T05:55:53.968Z,18.88
2023-09-08T05:56:53.918Z,18.91
2023-09-08T05:57:53.922Z,18.99
2023-09-08T05:58:53.909Z,18.92
2023-09-08T05:59:53.967Z,19.08
2023-09-08T06:00:53.916Z,19.02
2023-09-08T06:01:53.949Z,19.08
2023-09-08T06:02:54.012Z,18.99
2023-09-08T06:03:53.965Z,19.14
2023-09-08T06:04:53.932Z,19.16
2023-09-08T06:05:53.948Z,19.14
2023-09-08T06:06:53.953Z,19.19
2023-09-08T06:08:05.752Z,19.16
2023-09-08T06:08:53.914Z,19.16
2023-09-08T06:09:53.943Z,19.21
2023-09-08T06:10:53.936Z,19.25
2023-09-08T06:11:53.907Z,19.26
2023-09-08T06:12:53.942Z,19.31
2023-09-08T06:13:53.921Z,19.31
2023-09-08T06:14:53.908Z,19.39
2023-09-08T06:15:53.930Z,19.36
2023-09-08T06:16:54.000Z,19.37
2023-09-08T06:17:53.990Z,19.33
2023-09-08T06:18:53.911Z,19.48
2023-09-08T06:19:53.918Z,19.44
2023-09-08T06:20:53.956Z,19.55
2023-09-08T06:21:53.915Z,19.56
2023-09-08T06:22:53.909Z,19.59
2023-09-08T06:23:53.981Z,19.56
2023-09-08T06:24:53.907Z,19.56
2023-09-08T06:25:53.904Z,19.58
2023-09-08T06:26:53.992Z,19.68
2023-09-08T06:27:53.913Z,19.71
2023-09-08T06:28:53.920Z,19.74
2023-09-08T06:29:55.084Z,19.74
2023-09-08T06:30:53.937Z,19.74
2023-09-08T06:31:53.920Z,19.80
2023-09-08T06:32:53.997Z,19.87
2023-09-08T06:33:54.040Z,19.80
2023-09-08T06:34:53.912Z,19.81
2023-09-08T06:35:53.906Z,19.83
2023-09-08T06:36:53.915Z,19.81
2023-09-08T06:37:53.937Z,19.92
2023-09-08T06:38:53.911Z,19.96
2023-09-08T06:39:53.908Z,19.96
2023-09-08T06:40:53.916Z,19.95
2023-09-08T06:41:53.914Z,19.99
2023-09-08T06:42:55.323Z,20.03
2023-09-08T06:43:53.917Z,20.06
2023-09-08T06:44:53.914Z,20.08
2023-09-08T06:45:53.938Z,20.05
2023-09-08T06:46:53.916Z,20.10
2023-09-08T06:47:54.016Z,20.13
2023-09-08T06:48:53.916Z,20.08
2023-09-08T06:49:54.020Z,20.14
2023-09-08T06:50:53.943Z,20.23
2023-09-08T06:51:53.916Z,20.20
2023-09-08T06:52:53.926Z,20.18
2023-09-08T06:53:53.967Z,20.17
2023-09-08T06:54:53.929Z,20.23
2023-09-08T06:55:53.926Z,20.36
2023-09-08T06:56:53.919Z,20.29
2023-09-08T06:57:53.930Z,20.26
2023-09-08T06:58:54.032Z,20.41
2023-09-08T06:59:53.924Z,20.36
2023-09-08T07:00:54.011Z,20.41
2023-09-08T07:01:54.086Z,20.42
2023-09-08T07:02:54.178Z,20.42
2023-09-08T07:03:54.123Z,20.47
2023-09-08T07:04:54.041Z,20.43
2023-09-08T07:05:53.920Z,20.39
2023-09-08T07:06:53.951Z,20.51
2023-09-08T07:07:53.926Z,20.59
2023-09-08T07:08:53.930Z,20.58
2023-09-08T07:09:53.924Z,20.59
2023-09-08T07:10:53.957Z,20.62
2023-09-08T07:11:53.927Z,20.61
2023-09-08T07:12:53.934Z,20.69
2023-09-08T07:13:53.933Z,20.69
2023-09-08T07:14:54.034Z,20.74
2023-09-08T07:15:53.927Z,20.76
2023-09-08T07:16:54.091Z,20.82
2023-09-08T07:17:53.976Z,20.89
2023-09-08T07:18:53.933Z,20.87
2023-09-08T07:19:53.936Z,20.95
2023-09-08T07:20:53.938Z,20.97
2023-09-08T07:21:53.948Z,20.94
2023-09-08T07:22:54.001Z,20.92
2023-09-08T07:23:53.943Z,20.95
2023-09-08T07:24:53.951Z,21.06
2023-09-08T07:25:53.946Z,21.14
2023-09-08T07:26:53.944Z,21.14
2023-09-08T07:27:53.954Z,21.06
2023-09-08T07:28:53.940Z,21.25
2023-09-08T07:29:53.941Z,21.28
2023-09-08T07:30:54.138Z,21.32
2023-09-08T07:31:54.025Z,21.28
2023-09-08T07:32:54.001Z,21.31
2023-09-08T07:33:53.943Z,21.37
2023-09-08T07:34:54.030Z,21.29
2023-09-08T07:35:53.947Z,21.35
2023-09-08T07:36:53.946Z,21.52
2023-09-08T07:37:54.036Z,21.50
2023-09-08T07:38:53.952Z,21.46
2023-09-08T07:39:53.953Z,21.46
2023-09-08T07:40:53.963Z,21.54
2023-09-08T07:41:53.961Z,21.58
2023-09-08T07:42:53.960Z,21.67
2023-09-08T07:43:54.069Z,21.65
2023-09-08T07:44:53.965Z,21.68
2023-09-08T07:45:53.997Z,21.65
2023-09-08T07:46:53.987Z,21.69
2023-09-08T07:47:54.049Z,21.69
2023-09-08T07:48:53.972Z,21.69
2023-09-08T07:49:53.964Z,21.83
2023-09-08T07:50:53.980Z,21.74
2023-09-08T07:51:53.995Z,21.77
2023-09-08T07:52:53.988Z,21.88
2023-09-08T07:53:54.017Z,21.94
2023-09-08T07:54:53.979Z,22.03
2023-09-08T07:55:53.973Z,22.05
2023-09-08T07:56:54.043Z,22.03
2023-09-08T07:57:53.995Z,22.12
2023-09-08T07:58:53.991Z,22.20
2023-09-08T07:59:53.986Z,22.30
2023-09-08T08:00:53.989Z,22.33
2023-09-08T08:01:54.036Z,22.40
2023-09-08T08:02:54.087Z,22.49
2023-09-08T08:03:54.037Z,22.42
2023-09-08T08:04:53.991Z,22.47
2023-09-08T08:05:54.052Z,22.64
2023-09-08T08:06:54.023Z,22.45
2023-09-08T08:07:54.003Z,22.46
2023-09-08T08:08:54.045Z,22.46
2023-09-08T08:09:54.003Z,22.57
2023-09-08T08:10:54.006Z,22.60
2023-09-08T08:11:54.072Z,22.65
2023-09-08T08:12:54.006Z,22.75
2023-09-08T08:13:54.013Z,22.70
2023-09-08T08:14:54.040Z,22.77
2023-09-08T08:15:54.026Z,22.75
2023-09-08T08:16:54.012Z,22.75
2023-09-08T08:17:54.081Z,22.79
2023-09-08T08:18:54.171Z,22.82
2023-09-08T08:19:54.029Z,22.82
2023-09-08T08:20:54.028Z,22.83
2023-09-08T08:21:54.041Z,22.82
2023-09-08T08:22:54.039Z,22.95
2023-09-08T08:23:54.031Z,22.97
2023-09-08T08:24:54.045Z,23.04
2023-09-08T08:25:54.050Z,23.04
2023-09-08T08:26:54.043Z,23.01
2023-09-08T08:27:54.072Z,23.05
2023-09-08T08:28:54.045Z,23.13
2023-09-08T08:29:54.043Z,23.07
2023-09-08T08:30:54.077Z,23.19
2023-09-08T08:31:54.082Z,23.19
2023-09-08T08:32:54.097Z,23.23
2023-09-08T08:33:54.068Z,23.27
2023-09-08T08:34:54.087Z,23.23
2023-09-08T08:35:54.071Z,23.33
2023-09-08T08:36:54.093Z,23.38
2023-09-08T08:37:54.086Z,23.42
2023-09-08T08:38:54.071Z,23.39
2023-09-08T08:39:54.082Z,23.53
2023-09-08T08:40:54.093Z,23.51
2023-09-08T08:41:54.084Z,23.57
2023-09-08T08:42:54.080Z,23.60
2023-09-08T08:43:54.083Z,23.60
2023-09-08T08:44:54.096Z,23.51
2023-09-08T08:45:54.105Z,23.65
2023-09-08T08:46:54.125Z,23.58
2023-09-08T08:47:54.112Z,23.54
2023-09-08T08:48:54.101Z,23.68
2023-09-08T08:49:54.115Z,23.72
2023-09-08T08:50:54.146Z,23.70
2023-09-08T08:51:54.103Z,23.76
2023-09-08T08:52:54.103Z,23.88
2023-09-08T08:53:54.109Z,23.87
2023-09-08T08:54:54.201Z,23.88
2023-09-08T08:55:54.119Z,23.88
2023-09-08T08:56:54.175Z,23.91
2023-09-08T08:57:54.117Z,23.95
2023-09-08T08:58:54.222Z,24.02
2023-09-08T08:59:54.187Z,24.03
2023-09-08T09:00:54.128Z,24.00
2023-09-08T09:01:54.132Z,24.18
2023-09-08T09:03:11.678Z,24.22
2023-09-08T09:03:54.259Z,24.21
2023-09-08T09:04:54.158Z,24.24
2023-09-08T09:05:54.152Z,24.27
2023-09-08T09:06:54.167Z,24.31
2023-09-08T09:07:54.148Z,24.37
2023-09-08T09:08:54.150Z,24.40
2023-09-08T09:09:54.183Z,24.45
2023-09-08T09:10:54.157Z,24.40
2023-09-08T09:11:54.167Z,24.47
2023-09-08T09:12:54.160Z,24.45
2023-09-08T09:13:54.174Z,24.47
2023-09-08T09:14:54.222Z,24.60
2023-09-08T09:15:54.184Z,24.58
2023-09-08T09:16:54.181Z,24.61
2023-09-08T09:17:54.919Z,24.60
2023-09-08T09:18:54.219Z,24.61
2023-09-08T09:19:54.195Z,24.58
2023-09-08T09:20:54.197Z,24.65
2023-09-08T09:21:54.203Z,24.73
2023-09-08T09:22:54.332Z,24.78
2023-09-08T09:23:55.590Z,24.81
2023-09-08T09:24:54.413Z,24.80
2023-09-08T09:25:54.240Z,24.83
2023-09-08T09:26:54.225Z,24.81
2023-09-08T09:27:54.238Z,24.91
2023-09-08T09:28:54.222Z,24.93
2023-09-08T09:29:54.225Z,24.90
2023-09-08T09:30:54.240Z,24.99
2023-09-08T09:31:54.237Z,25.13
2023-09-08T09:32:54.309Z,25.09
2023-09-08T09:33:54.273Z,25.13
2023-09-08T09:34:54.411Z,25.08
2023-09-08T09:35:54.276Z,25.21
2023-09-08T09:36:54.251Z,25.32
2023-09-08T09:37:54.274Z,25.35
2023-09-08T09:38:54.299Z,25.32
2023-09-08T09:39:54.314Z,25.40
2023-09-08T09:40:54.269Z,25.43
2023-09-08T09:41:54.272Z,25.50
2023-09-08T09:42:54.285Z,25.57
2023-09-08T09:43:54.281Z,25.54
2023-09-08T09:44:54.305Z,25.52
2023-09-08T09:45:54.319Z,25.52
2023-09-08T09:46:54.291Z,25.50
2023-09-08T09:47:54.396Z,25.55
2023-09-08T09:48:54.298Z,25.54
2023-09-08T09:49:54.306Z,25.54
2023-09-08T09:50:54.316Z,25.38
2023-09-08T09:51:54.317Z,25.55
2023-09-08T09:52:54.316Z,25.61
2023-09-08T09:53:54.342Z,25.67
2023-09-08T09:54:54.380Z,25.73
2023-09-08T09:55:54.353Z,25.69
2023-09-08T09:56:54.331Z,25.65
2023-09-08T09:57:54.338Z,25.75
2023-09-08T09:58:54.442Z,25.80
2023-09-08T09:59:54.351Z,25.77
2023-09-08T10:00:54.368Z,25.87
2023-09-08T10:01:54.465Z,25.82
2023-09-08T10:02:54.410Z,25.82
2023-09-08T10:03:54.434Z,25.73
2023-09-08T10:04:54.366Z,25.70
2023-09-08T10:05:54.378Z,25.82
2023-09-08T10:06:54.386Z,25.80
2023-09-08T10:07:54.378Z,25.82
2023-09-08T10:08:54.392Z,25.85
2023-09-08T10:09:54.392Z,25.91
2023-09-08T10:10:54.427Z,25.98
2023-09-08T10:11:54.400Z,25.99
2023-09-08T10:12:54.400Z,26.20
2023-09-08T10:13:54.408Z,26.33
2023-09-08T10:14:54.411Z,26.33
2023-09-08T10:15:54.421Z,26.28
2023-09-08T10:16:54.435Z,26.18
2023-09-08T10:17:54.475Z,26.07
2023-09-08T10:18:54.888Z,26.15
2023-09-08T10:19:54.435Z,26.23
2023-09-08T10:20:54.443Z,26.30
2023-09-08T10:21:54.492Z,26.33
2023-09-08T10:22:54.447Z,26.44
2023-09-08T10:23:54.456Z,26.39
2023-09-08T10:24:54.458Z,26.36
2023-09-08T10:25:54.470Z,26.36
2023-09-08T10:26:54.504Z,26.36
2023-09-08T10:27:54.479Z,26.43
2023-09-08T10:28:54.476Z,26.44
2023-09-08T10:29:54.482Z,26.55
2023-09-08T10:30:54.505Z,26.51
2023-09-08T10:31:54.539Z,26.51
2023-09-08T10:32:54.549Z,26.54
2023-09-08T10:33:54.550Z,26.48
2023-09-08T10:34:54.528Z,26.52
2023-09-08T10:35:54.513Z,26.58
2023-09-08T10:36:54.509Z,26.69
2023-09-08T10:37:54.525Z,26.63
2023-09-08T10:38:54.528Z,26.73
2023-09-08T10:39:54.556Z,26.84
2023-09-08T10:40:54.541Z,26.92
2023-09-08T10:41:54.541Z,26.91
2023-09-08T10:42:54.583Z,26.89
2023-09-08T10:43:54.587Z,27.00
2023-09-08T10:44:54.551Z,27.04
2023-09-08T10:45:54.609Z,27.02
2023-09-08T10:46:54.584Z,26.99
2023-09-08T10:47:54.599Z,27.03
2023-09-08T10:48:54.684Z,27.09
2023-09-08T10:49:56.713Z,27.22
2023-09-08T10:50:54.589Z,27.29
2023-09-08T10:51:54.643Z,27.18
2023-09-08T10:52:54.593Z,27.24
2023-09-08T10:53:54.609Z,27.13
2023-09-08T10:54:54.612Z,27.10
2023-09-08T10:56:10.914Z,27.14
2023-09-08T10:56:54.712Z,27.19
2023-09-08T10:57:54.622Z,27.12
2023-09-08T10:58:54.662Z,27.24
2023-09-08T10:59:54.630Z,27.31
2023-09-08T11:00:54.643Z,27.47
2023-09-08T11:01:54.663Z,27.55
2023-09-08T11:02:54.730Z,27.60
2023-09-08T11:03:54.864Z,27.60
2023-09-08T11:04:54.678Z,27.54
2023-09-08T11:05:54.702Z,27.59
2023-09-08T11:06:54.670Z,27.51
2023-09-08T11:07:54.709Z,27.63
2023-09-08T11:08:54.740Z,27.60
2023-09-08T11:09:54.692Z,27.65
2023-09-08T11:10:54.691Z,27.87
2023-09-08T11:11:54.736Z,27.82
2023-09-08T11:12:54.709Z,27.70
2023-09-08T11:13:54.709Z,27.72
2023-09-08T11:14:54.787Z,27.74
2023-09-08T11:15:54.765Z,27.72
2023-09-08T11:16:54.728Z,27.72
2023-09-08T11:17:54.804Z,27.72
2023-09-08T11:18:54.770Z,27.77
2023-09-08T11:19:54.746Z,27.69
2023-09-08T11:20:54.806Z,27.55
2023-09-08T11:21:54.754Z,27.55
2023-09-08T11:22:54.762Z,27.78
2023-09-08T11:23:54.777Z,27.81
2023-09-08T11:24:54.821Z,27.81
2023-09-08T11:25:54.793Z,27.93
2023-09-08T11:26:54.797Z,27.88
2023-09-08T11:27:54.828Z,27.96
2023-09-08T11:28:54.818Z,28.06
2023-09-08T11:29:54.808Z,27.93
2023-09-08T11:30:54.875Z,27.82
2023-09-08T11:31:54.895Z,27.81
2023-09-08T11:32:54.862Z,27.99
2023-09-08T11:33:54.850Z,28.03
2023-09-08T11:34:54.847Z,28.02
2023-09-08T11:35:57.591Z,28.07
2023-09-08T11:36:54.894Z,28.09
2023-09-08T11:37:54.873Z,28.14
2023-09-08T11:38:54.882Z,28.02
2023-09-08T11:39:54.920Z,28.04
2023-09-08T11:40:54.868Z,28.07
2023-09-08T11:41:54.892Z,28.15
2023-09-08T11:42:54.892Z,28.11
2023-09-08T11:43:54.925Z,28.06
2023-09-08T11:44:54.896Z,28.04
2023-09-08T11:45:54.988Z,28.18
2023-09-08T11:46:55.120Z,28.00
2023-09-08T11:47:54.958Z,27.93
2023-09-08T11:48:54.966Z,27.82
2023-09-08T11:49:54.928Z,27.79
2023-09-08T11:50:54.940Z,27.87
2023-09-08T11:51:55.001Z,27.97
2023-09-08T11:52:54.946Z,27.96
2023-09-08T11:53:54.949Z,27.93
2023-09-08T11:55:06.631Z,27.85
2023-09-08T11:55:55.057Z,27.93
2023-09-08T11:56:54.967Z,27.85
2023-09-08T11:57:54.969Z,27.92
2023-09-08T11:58:54.992Z,27.87
2023-09-08T11:59:54.988Z,27.85
2023-09-08T12:00:54.998Z,27.75
2023-09-08T12:01:55.040Z,27.67
2023-09-08T12:02:55.056Z,27.65
2023-09-08T12:03:55.126Z,27.77
2023-09-08T12:04:55.020Z,27.75
2023-09-08T12:05:55.023Z,27.90
2023-09-08T12:06:55.040Z,28.00
2023-09-08T12:07:55.044Z,28.11
2023-09-08T12:08:55.040Z,28.15
2023-09-08T12:09:55.078Z,28.12
2023-09-08T12:10:55.050Z,28.15
2023-09-08T12:11:55.060Z,28.21
2023-09-08T12:12:55.097Z,28.04
2023-09-08T12:13:55.068Z,28.18
2023-09-08T12:14:55.072Z,28.21
2023-09-08T12:15:55.148Z,28.25
2023-09-08T12:16:55.110Z,28.11
2023-09-08T12:17:55.118Z,28.22
2023-09-08T12:18:55.163Z,28.17
2023-09-08T12:19:55.108Z,28.18
2023-09-08T12:20:55.116Z,28.18
2023-09-08T12:21:55.138Z,28.14
2023-09-08T12:22:55.127Z,28.21
2023-09-08T12:23:55.126Z,28.18
2023-09-08T12:24:55.137Z,28.24
2023-09-08T12:25:55.148Z,28.24
2023-09-08T12:26:55.159Z,28.18
2023-09-08T12:27:55.183Z,28.14
2023-09-08T12:28:55.173Z,28.22
2023-09-08T12:29:55.173Z,28.18
2023-09-08T12:30:55.262Z,28.18
2023-09-08T12:31:55.255Z,28.18
2023-09-08T12:32:55.217Z,28.27
2023-09-08T12:33:55.243Z,28.29
2023-09-08T12:34:55.243Z,28.29
2023-09-08T12:35:55.212Z,28.22
2023-09-08T12:36:55.243Z,28.22
2023-09-08T12:37:55.220Z,28.17
2023-09-08T12:38:55.221Z,28.24
2023-09-08T12:39:55.255Z,28.19
2023-09-08T12:40:55.231Z,28.19
2023-09-08T12:41:56.219Z,28.24
2023-09-08T12:43:05.743Z,28.43
2023-09-08T12:43:55.254Z,28.41
2023-09-08T12:44:55.289Z,28.41
2023-09-08T12:45:55.456Z,28.33
2023-09-08T12:46:55.299Z,28.25
2023-09-08T12:47:55.302Z,28.39
2023-09-08T12:48:55.281Z,28.37
2023-09-08T12:49:55.358Z,28.39
2023-09-08T12:50:55.331Z,28.49
2023-09-08T12:51:55.309Z,28.51
2023-09-08T12:52:55.307Z,28.51